Nekoosa, WI

2:59 AM CDT on August 26, 2016 (GMT -0500)
Town of Saratoga | | Change Station

Elev 972 ft 44.31 °N, 89.87 °W | Updated 1 day ago

Clear
Clear
56 °F
Feels Like 56 °F
N
4
Wind Variable Wind from WNW
Gusts mph

Today
High -- | Low -- °F
--% Chance of Precip.
Yesterday
High -- | Low -- °F
Precip. -- in
Pressure 30.12 in
Visibility 10.0 miles
Clouds Clear
Dew Point 54 °F
Humidity 93%
Rainfall in
Snow Depth Not available.
6:16 AM 7:45 PM
Last Quarter, 37% visible
METAR KISW 260754Z AUTO 28003KT 10SM CLR 14/13 A3013 RMK AO2 SLP200 T01390133
Pressure 30.12 in
Visibility 10.0 miles
Clouds Clear
Dew Point 54 °F
Humidity 93%
Rainfall in
Snow Depth Not available.
6:16 AM 7:45 PM
Last Quarter, 37% visible
METAR KISW 260754Z AUTO 28003KT 10SM CLR 14/13 A3013 RMK AO2 SLP200 T01390133

10-Day Weather Forecast

Almanac

Astronomy

Aug. 26, 2016 Rise Set
Actual Time
Civil Twilight
Nautical Twilight
Astronomical Twilight
Moon
Length of Visible Light
Length of Day
Tomorrow will be .
, % of the Moon is Illuminated

Today's Extremes

State Highs State Lows

Community

WunderPhotos

Upload Photos

1,935,062 photos uploaded!

WunderBlog® & News

Nearby

Air Quality

  Air Quality AQ Index Pollutant
Not available.

Snow Depth

Station Depth Elevation

Earthquake Activity

City Distance Mag. Time & Date
Minimum magnitude displayed is 2.5.

Coastal Water Temperatures

Place Temperature

Stations

Nearby Weather Stations

Station Location Temp. Windchill Dew Point Humidity Wind Precip. Elev Updated Type
                   

Watches & Warnings

There are currently no watches in effect.